Time;durP1;ratioP1;P1;durP2;ratioP2;P2;SDS_P1;SDS_P2;PMS_P1;PMS_P2;Temp;Humidity;BMP_temperature;BMP_pressure;BME280_temperature;BME280_humidity;BME280_pressure;Samples;Min_cycle;Max_cycle;Signal;HPM_P1;HPM_P2
2022/08/19 00:01:37;;;;;;;18.80;16.90;;;21.40;99.90;;;;;;4969416;28;21038;-66
2022/08/19 00:04:05;;;;;;;18.67;17.03;;;21.40;99.90;;;;;;4970437;28;20274;-66
2022/08/19 00:06:31;;;;;;;19.20;17.17;;;21.50;99.90;;;;;;4972626;28;20444;-66
2022/08/19 00:08:59;;;;;;;17.70;16.07;;;21.50;99.90;;;;;;4977787;28;20520;-66
2022/08/19 00:11:27;;;;;;;19.77;17.97;;;21.50;99.90;;;;;;4973909;28;20188;-65
2022/08/19 00:13:54;;;;;;;18.10;16.60;;;21.50;99.90;;;;;;4972837;28;20458;-65
2022/08/19 00:16:20;;;;;;;20.63;18.63;;;21.50;99.90;;;;;;4972104;28;20470;-65
2022/08/19 00:18:46;;;;;;;20.30;18.33;;;21.60;99.90;;;;;;4970395;28;20473;-66
2022/08/19 00:21:12;;;;;;;18.00;16.40;;;21.60;99.90;;;;;;4965200;28;20463;-66
2022/08/19 00:23:37;;;;;;;20.37;18.47;;;21.60;99.90;;;;;;4969946;28;20498;-66
2022/08/19 00:26:04;;;;;;;20.13;18.27;;;21.50;99.90;;;;;;4969833;28;22006;-65
2022/08/19 00:28:30;;;;;;;18.50;16.70;;;21.50;99.90;;;;;;4971396;28;20208;-65
2022/08/19 00:30:56;;;;;;;19.80;17.80;;;21.50;99.90;;;;;;4968770;28;20454;-66
2022/08/19 00:33:21;;;;;;;19.17;17.53;;;21.50;99.90;;;;;;4973823;28;20660;-66
2022/08/19 00:35:47;;;;;;;18.57;16.87;;;21.50;99.90;;;;;;4969617;28;20187;-65
2022/08/19 00:38:13;;;;;;;19.30;17.43;;;21.40;99.90;;;;;;4981935;28;20283;-65
2022/08/19 00:40:39;;;;;;;19.00;17.20;;;21.30;99.90;;;;;;4974868;28;20750;-65
2022/08/19 00:43:10;;;;;;;19.57;17.77;;;21.30;99.90;;;;;;4969329;28;20567;-65
2022/08/19 00:45:36;;;;;;;21.43;19.20;;;21.40;99.90;;;;;;4964657;28;20512;-66
2022/08/19 00:48:04;;;;;;;19.30;17.40;;;21.50;99.90;;;;;;4970348;28;20463;-65
2022/08/19 00:50:30;;;;;;;17.87;16.17;;;21.40;99.90;;;;;;4969521;28;20647;-65
2022/08/19 00:52:57;;;;;;;20.30;18.50;;;21.50;99.90;;;;;;4976967;28;20458;-66
2022/08/19 00:55:27;;;;;;;19.07;17.37;;;21.40;99.90;;;;;;4969151;28;20976;-65
2022/08/19 00:57:57;;;;;;;18.47;16.73;;;21.30;99.90;;;;;;4972801;28;20482;-66
2022/08/19 01:00:24;;;;;;;18.70;17.10;;;21.20;99.90;;;;;;4974166;28;20467;-65
2022/08/19 01:02:50;;;;;;;19.50;17.67;;;21.30;99.90;;;;;;4974451;28;20471;-65
2022/08/19 01:05:20;;;;;;;18.90;17.10;;;21.30;99.90;;;;;;4973577;28;20920;-65
2022/08/19 01:07:47;;;;;;;18.30;16.63;;;21.20;99.90;;;;;;4972264;28;20203;-65
2022/08/19 01:10:18;;;;;;;19.10;17.40;;;21.30;99.90;;;;;;4970953;28;20439;-66
2022/08/19 01:12:44;;;;;;;19.90;17.83;;;21.50;99.90;;;;;;4974434;28;20464;-65
2022/08/19 01:15:13;;;;;;;18.93;17.23;;;21.30;99.90;;;;;;4972591;28;20439;-65
2022/08/19 01:17:40;;;;;;;20.07;18.07;;;21.30;99.90;;;;;;4973708;28;20910;-66
2022/08/19 01:20:09;;;;;;;19.60;17.83;;;21.30;99.90;;;;;;4972523;28;20463;-66
2022/08/19 01:23:07;;;;;;;21.17;18.87;;;21.30;99.90;;;;;;4970736;28;20450;-65
2022/08/19 01:25:49;;;;;;;20.93;18.97;;;21.30;99.90;;;;;;4950537;28;20808;-66
2022/08/19 01:28:18;;;;;;;20.70;18.57;;;21.30;99.90;;;;;;4974074;28;20480;-65
2022/08/19 01:30:44;;;;;;;19.67;17.87;;;21.50;99.90;;;;;;4975788;28;20443;-65
2022/08/19 01:33:10;;;;;;;19.53;17.63;;;21.20;99.90;;;;;;4974821;28;20439;-65
2022/08/19 01:35:36;;;;;;;18.97;17.37;;;21.10;99.90;;;;;;4976983;28;20439;-65
2022/08/19 01:38:08;;;;;;;20.33;18.53;;;21.20;99.90;;;;;;4975504;28;20571;-65
2022/08/19 01:40:36;;;;;;;22.80;20.60;;;21.20;99.90;;;;;;4974640;28;20224;-65
2022/08/19 01:43:03;;;;;;;20.13;18.13;;;21.10;99.90;;;;;;4977676;28;20485;-65
2022/08/19 01:45:30;;;;;;;20.70;18.83;;;21.00;99.90;;;;;;4975270;28;20444;-65
2022/08/19 01:47:57;;;;;;;19.87;17.93;;;21.10;99.90;;;;;;4973752;28;20463;-66
2022/08/19 01:50:24;;;;;;;20.70;18.73;;;21.10;99.90;;;;;;4975771;28;20816;-65
2022/08/19 01:52:49;;;;;;;20.60;18.40;;;21.10;99.90;;;;;;4971256;28;20505;-65
2022/08/19 01:55:18;;;;;;;22.30;20.30;;;21.10;99.90;;;;;;4976555;28;20435;-65
2022/08/19 01:57:49;;;;;;;21.67;19.47;;;21.00;99.90;;;;;;4975532;28;20219;-65
2022/08/19 02:00:17;;;;;;;22.00;19.80;;;21.00;99.90;;;;;;4979781;28;20513;-65
2022/08/19 02:02:44;;;;;;;21.37;19.40;;;21.00;99.90;;;;;;4981323;28;20497;-65
2022/08/19 02:05:10;;;;;;;20.53;18.63;;;21.00;99.90;;;;;;4988951;28;20462;-65
2022/08/19 02:07:37;;;;;;;21.97;20.00;;;21.00;99.90;;;;;;4986117;28;20521;-65
2022/08/19 02:10:09;;;;;;;20.00;18.00;;;21.10;99.90;;;;;;4993578;28;20445;-65
2022/08/19 02:12:35;;;;;;;22.60;20.60;;;21.00;99.90;;;;;;4982786;28;20447;-65
2022/08/19 02:15:02;;;;;;;22.80;20.70;;;20.90;99.90;;;;;;4977798;28;20475;-65
2022/08/19 02:17:29;;;;;;;21.97;19.87;;;21.00;99.90;;;;;;4989588;28;21006;-65
2022/08/19 02:19:56;;;;;;;21.17;19.17;;;20.90;99.90;;;;;;4986870;28;20465;-65
2022/08/19 02:22:22;;;;;;;23.00;20.90;;;20.90;99.90;;;;;;4976214;28;20802;-65
2022/08/19 02:24:48;;;;;;;22.87;20.70;;;20.80;99.90;;;;;;4984588;28;20443;-65
2022/08/19 02:27:14;;;;;;;24.17;21.60;;;20.70;99.90;;;;;;4974162;28;20463;-65
2022/08/19 02:29:40;;;;;;;23.00;20.83;;;20.70;99.90;;;;;;4973560;28;20187;-65
2022/08/19 02:32:06;;;;;;;22.47;20.27;;;20.80;99.90;;;;;;4975276;28;20443;-65
2022/08/19 02:34:32;;;;;;;23.53;21.40;;;20.80;99.90;;;;;;4982676;28;20441;-65
2022/08/19 02:36:57;;;;;;;22.97;20.80;;;20.90;99.90;;;;;;4973062;28;20267;-66
2022/08/19 02:39:23;;;;;;;24.60;22.40;;;20.90;99.90;;;;;;4971999;28;20180;-65
2022/08/19 02:41:49;;;;;;;23.70;21.30;;;20.80;99.90;;;;;;4973475;28;20224;-65
2022/08/19 02:44:15;;;;;;;23.00;21.00;;;20.80;99.90;;;;;;4975518;28;20180;-65
2022/08/19 02:46:40;;;;;;;23.40;21.17;;;20.80;99.90;;;;;;4974715;28;20959;-65
2022/08/19 02:49:07;;;;;;;24.90;22.50;;;20.70;99.90;;;;;;4972752;28;20200;-65
2022/08/19 02:51:36;;;;;;;23.57;21.23;;;20.70;99.90;;;;;;4984155;28;20195;-65
2022/08/19 02:54:03;;;;;;;21.57;19.67;;;20.70;99.90;;;;;;4972722;28;20861;-65
2022/08/19 02:56:30;;;;;;;25.63;22.97;;;20.70;99.90;;;;;;4972433;28;20454;-65
2022/08/19 02:58:56;;;;;;;26.97;20.77;;;20.80;99.90;;;;;;4973145;28;20478;-65
2022/08/19 03:01:28;;;;;;;24.03;21.63;;;20.70;99.90;;;;;;4973070;28;20467;-65
2022/08/19 03:03:55;;;;;;;22.30;20.23;;;20.80;99.90;;;;;;4975380;28;20812;-66
2022/08/19 03:06:21;;;;;;;23.60;21.37;;;20.70;99.90;;;;;;4973024;28;20443;-65
2022/08/19 03:08:49;;;;;;;24.73;22.23;;;20.80;99.90;;;;;;4979978;28;20467;-65
2022/08/19 03:11:21;;;;;;;24.57;22.27;;;20.80;99.90;;;;;;4987257;28;20521;-66
2022/08/19 03:13:48;;;;;;;23.83;21.73;;;21.40;99.90;;;;;;4984284;28;20537;-65
2022/08/19 03:16:15;;;;;;;24.17;21.57;;;20.80;99.90;;;;;;4989725;28;20447;-65
2022/08/19 03:18:41;;;;;;;25.97;23.00;;;20.70;99.90;;;;;;4984118;28;20738;-66
2022/08/19 03:21:07;;;;;;;25.77;23.10;;;20.70;99.90;;;;;;4977891;28;20620;-65
2022/08/19 03:23:33;;;;;;;26.83;24.07;;;20.70;99.90;;;;;;4978840;28;20207;-65
2022/08/19 03:26:04;;;;;;;27.57;24.70;;;20.60;99.90;;;;;;4992404;28;20467;-65
2022/08/19 03:28:29;;;;;;;26.10;23.30;;;20.50;99.90;;;;;;4991686;28;20494;-65
2022/08/19 03:31:02;;;;;;;25.03;22.53;;;20.70;99.90;;;;;;4989753;28;20956;-65
2022/08/19 03:33:30;;;;;;;24.90;22.33;;;20.60;99.90;;;;;;4987620;28;20188;-65
2022/08/19 03:36:12;;;;;;;26.93;24.27;;;20.50;99.90;;;;;;4984484;28;20861;-65
2022/08/19 03:38:43;;;;;;;25.40;23.00;;;20.40;99.90;;;;;;4988581;28;20971;-65
2022/08/19 03:41:13;;;;;;;27.43;25.03;;;20.40;99.90;;;;;;4988108;28;20470;-65
2022/08/19 03:43:40;;;;;;;26.37;23.97;;;20.40;99.90;;;;;;4988025;28;20819;-65
2022/08/19 03:46:09;;;;;;;28.37;25.47;;;20.60;99.90;;;;;;4973940;28;20467;-65
2022/08/19 03:48:36;;;;;;;26.23;23.87;;;20.50;99.90;;;;;;4987460;28;20468;-65
2022/08/19 03:51:02;;;;;;;25.00;22.60;;;20.40;99.90;;;;;;4975698;28;20487;-65
2022/08/19 03:53:29;;;;;;;29.53;26.63;;;20.50;99.90;;;;;;4980333;28;20921;-65
2022/08/19 03:55:55;;;;;;;29.07;26.17;;;20.50;99.90;;;;;;4977258;28;20674;-65
2022/08/19 03:58:22;;;;;;;28.50;25.60;;;20.40;99.90;;;;;;4974779;28;20510;-65
2022/08/19 04:00:48;;;;;;;27.77;24.97;;;20.40;99.90;;;;;;4976090;28;20878;-65
2022/08/19 04:03:14;;;;;;;29.43;25.10;;;20.30;99.90;;;;;;4986279;28;20450;-65
2022/08/19 04:05:40;;;;;;;27.90;25.17;;;20.30;99.90;;;;;;4984932;28;20184;-65
2022/08/19 04:08:05;;;;;;;29.00;26.13;;;20.20;99.90;;;;;;4976443;28;20474;-65
2022/08/19 04:10:38;;;;;;;27.50;24.80;;;20.20;99.90;;;;;;4983272;28;20197;-65
2022/08/19 04:13:05;;;;;;;28.83;26.00;;;20.20;99.90;;;;;;4975419;28;20195;-65
2022/08/19 04:15:38;;;;;;;26.40;23.70;;;20.20;99.90;;;;;;4988933;28;20451;-65
2022/08/19 04:18:05;;;;;;;27.47;24.70;;;20.30;99.90;;;;;;4991478;28;20522;-65
2022/08/19 04:20:31;;;;;;;29.23;26.37;;;20.30;99.90;;;;;;4991766;28;20474;-65
2022/08/19 04:22:56;;;;;;;27.73;24.93;;;20.30;99.90;;;;;;4978497;28;20479;-66
2022/08/19 04:25:22;;;;;;;29.00;26.20;;;20.40;99.90;;;;;;4991067;28;20214;-65
2022/08/19 04:27:48;;;;;;;30.30;27.37;;;20.30;99.90;;;;;;4987972;28;20290;-66
2022/08/19 04:30:14;;;;;;;30.07;27.27;;;20.30;99.90;;;;;;4989535;28;20218;-66
2022/08/19 04:32:40;;;;;;;29.00;25.90;;;20.20;99.90;;;;;;4985304;28;20207;-65
2022/08/19 04:35:05;;;;;;;27.90;25.30;;;20.20;99.90;;;;;;4985599;28;20972;-66
2022/08/19 04:37:33;;;;;;;29.17;26.47;;;20.20;99.90;;;;;;4989897;28;20204;-66
2022/08/19 04:42:43;;;;;;;31.20;28.00;;;20.10;99.90;;;;;;4971812;28;20433;-65
2022/08/19 04:45:12;;;;;;;31.67;28.60;;;20.10;99.90;;;;;;4981482;28;20435;-66
2022/08/19 04:47:40;;;;;;;31.07;28.00;;;20.00;99.90;;;;;;4977647;28;20629;-66
2022/08/19 04:50:06;;;;;;;31.50;28.23;;;20.10;99.90;;;;;;4978992;28;20467;-65
2022/08/19 04:52:32;;;;;;;30.77;27.67;;;20.10;99.90;;;;;;4976736;28;20451;-65
2022/08/19 04:54:58;;;;;;;30.13;27.13;;;20.20;99.90;;;;;;4977281;28;20431;-65
2022/08/19 04:57:24;;;;;;;26.67;24.07;;;20.20;99.90;;;;;;4976232;28;20274;-65
2022/08/19 04:59:54;;;;;;;30.13;27.33;;;20.30;99.90;;;;;;4979388;28;20514;-65
2022/08/19 05:02:20;;;;;;;28.83;25.83;;;20.40;99.90;;;;;;4978179;28;20431;-65
2022/08/19 05:04:45;;;;;;;29.60;26.70;;;20.30;99.90;;;;;;4977657;28;20687;-65
2022/08/19 05:07:11;;;;;;;25.53;23.23;;;20.30;99.90;;;;;;4976757;28;20670;-66
2022/08/19 05:09:36;;;;;;;28.23;25.53;;;20.40;99.90;;;;;;4977576;28;20757;-65
2022/08/19 05:12:02;;;;;;;30.67;27.53;;;20.30;99.90;;;;;;4988637;28;20661;-65
2022/08/19 05:14:28;;;;;;;31.37;28.07;;;20.40;99.90;;;;;;4991028;28;20263;-65
2022/08/19 05:16:54;;;;;;;32.27;28.77;;;20.30;99.90;;;;;;4989909;28;20190;-65
2022/08/19 05:24:48;;;;;;;30.37;27.27;;;20.30;99.90;;;;;;4987258;28;20496;-65
2022/08/19 05:27:14;;;;;;;30.23;27.23;;;20.40;99.90;;;;;;4989093;28;20464;-65
2022/08/19 05:29:39;;;;;;;30.07;27.37;;;20.40;99.90;;;;;;4978121;28;20930;-66
2022/08/19 05:32:08;;;;;;;28.93;26.03;;;20.40;99.90;;;;;;4976940;28;20192;-65
2022/08/19 05:34:35;;;;;;;28.10;25.57;;;20.40;99.90;;;;;;4980323;28;20190;-65
2022/08/19 05:37:02;;;;;;;29.37;26.60;;;20.40;99.90;;;;;;4978972;28;20443;-66
2022/08/19 05:39:30;;;;;;;26.43;23.90;;;20.50;99.90;;;;;;4979239;28;20439;-66
2022/08/19 05:42:02;;;;;;;29.60;26.60;;;20.50;99.90;;;;;;4984359;28;20479;-65
2022/08/19 05:44:31;;;;;;;30.43;27.37;;;20.40;99.90;;;;;;4979750;28;20440;-66
2022/08/19 05:46:57;;;;;;;31.40;28.13;;;20.50;99.90;;;;;;4983123;28;20443;-65
2022/08/19 05:49:24;;;;;;;27.80;25.00;;;20.50;99.90;;;;;;4978068;28;20446;-65
2022/08/19 05:51:50;;;;;;;28.40;25.73;;;20.60;99.90;;;;;;4978041;28;20439;-65
2022/08/19 05:54:16;;;;;;;29.20;26.47;;;20.60;99.90;;;;;;4986125;28;20869;-66
2022/08/19 05:56:42;;;;;;;29.80;26.80;;;20.50;99.90;;;;;;4976309;28;20211;-65
2022/08/19 05:59:11;;;;;;;29.97;27.33;;;20.50;99.90;;;;;;4974199;28;20474;-65
2022/08/19 06:01:41;;;;;;;29.37;26.37;;;20.60;99.90;;;;;;4981278;28;20462;-65
2022/08/19 06:04:07;;;;;;;28.80;25.93;;;20.50;99.90;;;;;;4984565;28;20451;-66
2022/08/19 06:06:34;;;;;;;30.33;27.57;;;20.50;99.90;;;;;;4981801;28;20949;-66
2022/08/19 06:09:01;;;;;;;27.63;25.03;;;20.50;99.90;;;;;;4977790;28;20200;-65
2022/08/19 06:11:36;;;;;;;30.17;27.33;;;20.50;99.90;;;;;;4980110;28;20841;-65
2022/08/19 06:14:08;;;;;;;29.43;26.57;;;20.50;99.90;;;;;;4983683;28;20454;-66
2022/08/19 06:16:40;;;;;;;30.17;27.20;;;20.50;99.90;;;;;;4979223;28;20444;-66
2022/08/19 06:19:09;;;;;;;30.40;27.40;;;20.40;99.90;;;;;;4983166;28;20468;-66
2022/08/19 06:21:37;;;;;;;30.13;26.97;;;20.40;99.90;;;;;;4980964;28;20474;-66
2022/08/19 06:24:09;;;;;;;30.03;27.10;;;20.40;99.90;;;;;;4976624;28;20971;-66
2022/08/19 06:26:36;;;;;;;29.83;26.93;;;20.40;99.90;;;;;;4972106;28;20463;-65
2022/08/19 06:29:05;;;;;;;28.07;25.43;;;20.40;99.90;;;;;;4975279;28;20470;-65
2022/08/19 06:31:33;;;;;;;29.67;26.80;;;20.50;99.90;;;;;;4981440;28;20447;-65
2022/08/19 06:33:59;;;;;;;30.07;27.17;;;20.60;99.90;;;;;;4976445;28;20448;-65
2022/08/19 06:36:31;;;;;;;29.57;26.77;;;20.60;99.90;;;;;;4976148;28;20448;-65
2022/08/19 06:38:58;;;;;;;28.90;26.17;;;20.60;99.90;;;;;;4973819;28;20850;-65
2022/08/19 06:41:25;;;;;;;28.50;25.90;;;20.50;99.90;;;;;;4978985;28;20474;-65
2022/08/19 06:43:51;;;;;;;29.67;26.80;;;20.60;99.90;;;;;;4977529;28;20439;-65
2022/08/19 06:46:20;;;;;;;28.20;25.67;;;20.60;99.90;;;;;;4982035;28;20454;-65
2022/08/19 06:48:47;;;;;;;29.37;26.47;;;20.80;99.90;;;;;;4985142;28;20463;-66
2022/08/19 06:51:20;;;;;;;27.23;24.83;;;20.70;99.90;;;;;;4984001;28;20511;-65
2022/08/19 06:53:47;;;;;;;31.27;28.20;;;20.70;99.90;;;;;;4974229;28;20450;-65
2022/08/19 06:56:16;;;;;;;30.90;27.70;;;20.80;99.90;;;;;;4981544;28;20442;-65
2022/08/19 06:58:41;;;;;;;32.40;29.20;;;20.70;99.90;;;;;;4994336;23;22017;-70
2022/08/19 07:01:07;;;;;;;29.60;26.60;;;20.50;99.90;;;;;;4976306;28;20471;-67
2022/08/19 07:03:35;;;;;;;30.77;27.87;;;20.60;99.90;;;;;;4981325;28;20599;-67
2022/08/19 07:06:10;;;;;;;29.20;26.40;;;20.60;99.90;;;;;;4981213;28;20183;-67
2022/08/19 07:08:37;;;;;;;33.27;29.80;;;20.60;99.90;;;;;;4984771;28;20541;-69
2022/08/19 07:11:07;;;;;;;29.93;27.23;;;20.60;99.90;;;;;;4979990;28;20486;-67
2022/08/19 07:13:36;;;;;;;31.00;27.80;;;20.50;99.90;;;;;;4978985;28;20998;-68
2022/08/19 07:16:06;;;;;;;31.27;28.07;;;20.40;99.90;;;;;;4983000;28;20438;-67
2022/08/19 07:18:32;;;;;;;28.67;26.03;;;20.40;99.90;;;;;;4980532;28;20470;-68
2022/08/19 07:21:07;;;;;;;29.83;27.03;;;20.30;99.90;;;;;;4975910;28;20485;-68
2022/08/19 07:23:33;;;;;;;31.33;28.30;;;20.40;99.90;;;;;;4978173;28;20172;-68
2022/08/19 07:26:05;;;;;;;27.00;24.50;;;20.40;99.90;;;;;;4979667;28;21732;-68
2022/08/19 07:28:31;;;;;;;30.07;27.23;;;20.40;99.90;;;;;;4981802;28;20578;-68
2022/08/19 07:30:56;;;;;;;29.23;26.33;;;20.30;99.90;;;;;;4981840;28;20525;-70
2022/08/19 07:33:22;;;;;;;30.43;27.50;;;20.40;99.90;;;;;;4978186;28;20200;-68
2022/08/19 07:35:49;;;;;;;27.97;25.33;;;20.30;99.90;;;;;;4974914;28;20409;-67
2022/08/19 07:38:16;;;;;;;31.77;28.63;;;20.30;99.90;;;;;;4974901;28;20267;-68
2022/08/19 07:40:42;;;;;;;29.87;26.97;;;20.20;99.90;;;;;;4983168;28;20454;-68
2022/08/19 07:43:08;;;;;;;29.70;26.53;;;20.20;99.90;;;;;;4970967;28;20493;-68
2022/08/19 07:45:33;;;;;;;30.33;27.20;;;20.20;99.90;;;;;;4970475;28;20435;-68
2022/08/19 07:48:00;;;;;;;31.00;27.97;;;20.20;99.90;;;;;;4970088;28;20200;-67
2022/08/19 07:50:26;;;;;;;30.03;26.17;;;20.10;99.90;;;;;;4971040;28;20192;-67
2022/08/19 07:52:51;;;;;;;29.80;26.63;;;20.10;99.90;;;;;;4973048;28;20948;-68
2022/08/19 07:55:23;;;;;;;27.13;24.60;;;20.20;99.90;;;;;;4971067;28;20446;-68
2022/08/19 07:57:49;;;;;;;27.93;25.13;;;20.20;99.90;;;;;;4968418;28;20322;-68
2022/08/19 08:00:15;;;;;;;28.50;25.83;;;20.30;99.90;;;;;;4976393;28;20555;-66
2022/08/19 08:02:42;;;;;;;32.57;28.27;;;20.40;99.90;;;;;;4972111;28;20190;-67
2022/08/19 08:10:37;;;;;;;26.70;24.30;;;20.30;99.90;;;;;;4982629;28;20450;-66
2022/08/19 08:13:05;;;;;;;29.67;26.50;;;20.30;99.90;;;;;;4982917;28;20450;-68
2022/08/19 08:15:31;;;;;;;28.07;25.37;;;20.30;99.90;;;;;;4981050;28;20438;-67
2022/08/19 08:17:57;;;;;;;27.23;24.57;;;20.30;99.90;;;;;;4970497;28;20521;-68
2022/08/19 08:20:24;;;;;;;28.57;25.70;;;20.20;99.90;;;;;;4968547;28;20494;-66
2022/08/19 08:25:35;;;;;;;27.43;24.53;;;20.10;99.90;;;;;;4982234;28;20453;-65
2022/08/19 08:28:02;;;;;;;26.83;24.13;;;20.30;99.90;;;;;;4970337;28;20466;-66
2022/08/19 08:30:29;;;;;;;28.63;25.70;;;20.10;99.90;;;;;;4972353;28;20427;-66
2022/08/19 08:32:55;;;;;;;28.73;25.77;;;20.10;99.90;;;;;;4974130;28;20494;-67
2022/08/19 08:35:23;;;;;;;27.43;24.93;;;20.10;99.90;;;;;;4979607;28;20846;-66
2022/08/19 08:37:51;;;;;;;25.93;23.53;;;20.20;99.90;;;;;;4976405;28;20821;-67
2022/08/19 08:41:06;;;;;;;26.53;24.03;;;20.20;99.90;;;;;;4975271;28;20906;-68
2022/08/19 08:43:43;;;;;;;26.73;24.20;;;20.30;99.90;;;;;;4972520;28;20865;-68
2022/08/19 08:46:18;;;;;;;27.27;24.30;;;20.40;99.90;;;;;;4975349;28;20430;-68
2022/08/19 08:49:12;;;;;;;27.83;25.30;;;20.50;99.90;;;;;;4972600;28;20545;-66
2022/08/19 08:51:43;;;;;;;24.83;22.53;;;20.50;99.90;;;;;;4981073;28;20458;-67
2022/08/19 08:54:12;;;;;;;27.10;24.60;;;20.50;99.90;;;;;;4982592;28;20463;-66
2022/08/19 08:56:41;;;;;;;27.97;25.40;;;20.50;99.90;;;;;;4985028;28;20497;-67
2022/08/19 08:59:16;;;;;;;27.30;24.97;;;20.50;99.90;;;;;;4974258;28;21046;-67
2022/08/19 09:01:42;;;;;;;26.57;23.87;;;20.70;99.90;;;;;;4980525;28;20589;-66
2022/08/19 09:04:08;;;;;;;28.20;25.40;;;20.90;99.90;;;;;;4971810;28;20591;-66
2022/08/19 09:07:03;;;;;;;25.33;23.13;;;20.90;99.90;;;;;;4980567;28;20230;-69
2022/08/19 09:09:34;;;;;;;25.57;23.27;;;21.00;99.90;;;;;;4965573;28;20262;-66
2022/08/19 09:12:10;;;;;;;27.27;24.77;;;20.90;99.90;;;;;;4980939;28;20439;-66
2022/08/19 09:14:50;;;;;;;26.10;23.77;;;21.00;99.90;;;;;;4980818;28;20447;-66
2022/08/19 09:17:16;;;;;;;25.30;22.90;;;21.10;99.90;;;;;;4973737;28;20987;-67
2022/08/19 09:20:12;;;;;;;27.30;24.80;;;21.20;99.90;;;;;;4981347;28;20789;-67
2022/08/19 09:22:40;;;;;;;25.27;22.87;;;21.10;99.90;;;;;;4973351;28;20450;-67
2022/08/19 09:25:08;;;;;;;22.20;20.17;;;21.20;99.90;;;;;;4985262;28;20521;-66
2022/08/19 09:27:37;;;;;;;26.07;23.50;;;21.20;99.90;;;;;;4971937;28;20799;-67
2022/08/19 09:30:04;;;;;;;25.57;23.10;;;21.20;99.90;;;;;;4977168;28;20533;-67
2022/08/19 09:32:30;;;;;;;26.03;23.57;;;21.20;99.90;;;;;;4978255;28;20439;-66
2022/08/19 09:34:57;;;;;;;26.63;24.13;;;21.20;99.90;;;;;;4973075;28;20435;-66
2022/08/19 09:37:24;;;;;;;23.77;21.57;;;21.20;99.90;;;;;;4972310;28;20818;-67
2022/08/19 09:39:50;;;;;;;22.30;20.20;;;21.20;99.90;;;;;;4971570;28;20837;-67
2022/08/19 09:42:16;;;;;;;27.83;21.07;;;21.20;99.90;;;;;;4972433;28;20885;-68
2022/08/19 09:44:42;;;;;;;24.30;21.30;;;21.30;99.90;;;;;;4974175;28;20483;-66
2022/08/19 09:47:09;;;;;;;26.37;23.67;;;21.30;99.90;;;;;;4978312;28;20439;-66
2022/08/19 09:49:35;;;;;;;25.30;22.70;;;21.20;99.90;;;;;;4980732;28;20442;-67
2022/08/19 09:52:01;;;;;;;22.90;21.00;;;21.10;99.90;;;;;;4971320;28;20866;-67
2022/08/19 09:54:27;;;;;;;24.13;22.10;;;21.20;99.90;;;;;;4971712;28;20176;-67
2022/08/19 09:56:53;;;;;;;22.90;20.80;;;21.20;99.90;;;;;;4972131;28;20185;-67
2022/08/19 09:59:19;;;;;;;24.00;21.07;;;21.20;99.90;;;;;;4971755;28;21000;-67
2022/08/19 10:01:44;;;;;;;20.33;18.50;;;21.30;99.90;;;;;;4980113;28;20556;-67
2022/08/19 10:04:10;;;;;;;22.63;20.73;;;21.40;99.90;;;;;;4980967;28;20207;-67
2022/08/19 10:06:39;;;;;;;21.20;19.20;;;21.40;99.90;;;;;;4983413;28;20259;-67
2022/08/19 10:09:07;;;;;;;21.93;19.90;;;21.40;99.90;;;;;;4977505;28;20202;-66
2022/08/19 10:11:34;;;;;;;22.10;19.90;;;21.40;99.90;;;;;;4974614;28;20548;-67
2022/08/19 10:14:01;;;;;;;24.00;21.47;;;21.50;99.90;;;;;;4972861;28;20439;-68
2022/08/19 10:16:27;;;;;;;24.03;21.80;;;21.60;99.90;;;;;;4971946;28;20479;-68
2022/08/19 10:18:53;;;;;;;22.70;20.30;;;21.50;99.90;;;;;;4970715;28;20514;-69
2022/08/19 10:21:25;;;;;;;35.13;18.50;;;21.60;99.90;;;;;;4972160;28;20230;-68
2022/08/19 10:23:54;;;;;;;20.80;19.00;;;21.60;99.90;;;;;;4979104;28;20477;-68
2022/08/19 10:26:24;;;;;;;20.53;18.83;;;21.60;99.90;;;;;;4972869;28;20447;-69
2022/08/19 10:28:50;;;;;;;20.97;18.77;;;21.70;99.90;;;;;;4976910;28;20467;-68
2022/08/19 10:31:19;;;;;;;20.77;18.70;;;21.70;99.90;;;;;;4969448;28;20810;-69
2022/08/19 10:33:46;;;;;;;18.43;16.47;;;21.80;99.90;;;;;;4971319;28;20586;-69
2022/08/19 10:36:17;;;;;;;30.63;27.63;;;21.80;99.90;;;;;;4969617;28;20906;-68
2022/08/19 10:38:44;;;;;;;25.23;22.53;;;21.70;99.90;;;;;;4978023;28;20463;-69
2022/08/19 10:41:15;;;;;;;22.27;20.13;;;21.90;99.90;;;;;;4971199;28;20464;-69
2022/08/19 10:43:42;;;;;;;24.43;22.27;;;21.70;99.90;;;;;;4969740;28;20443;-68
2022/08/19 10:46:11;;;;;;;21.90;19.80;;;21.90;99.90;;;;;;4971431;28;20447;-70
2022/08/19 10:48:36;;;;;;;21.70;19.50;;;21.90;99.90;;;;;;4972018;28;20502;-70
2022/08/19 10:53:48;;;;;;;20.07;18.07;;;21.80;99.90;;;;;;4970854;28;20217;-69
2022/08/19 10:59:02;;;;;;;19.13;17.30;;;21.80;99.90;;;;;;4975865;28;20553;-68
2022/08/19 11:01:29;;;;;;;17.10;15.60;;;21.90;99.90;;;;;;4965246;28;20472;-70
2022/08/19 11:03:57;;;;;;;17.97;16.00;;;22.00;99.90;;;;;;4974776;28;20442;-68
2022/08/19 11:06:24;;;;;;;16.97;15.27;;;21.90;99.90;;;;;;4970986;28;20534;-68
2022/08/19 11:08:51;;;;;;;18.17;16.57;;;22.00;99.90;;;;;;4972413;28;20446;-67
2022/08/19 11:11:16;;;;;;;20.53;17.47;;;22.10;99.90;;;;;;4971199;28;20782;-69
2022/08/19 11:13:43;;;;;;;15.80;14.13;;;22.10;99.90;;;;;;4972200;28;20590;-68
2022/08/19 11:16:15;;;;;;;18.30;16.37;;;22.20;99.90;;;;;;4974096;28;20559;-67
2022/08/19 11:18:48;;;;;;;16.57;15.07;;;22.20;99.90;;;;;;4973304;28;20813;-68
2022/08/19 11:21:27;;;;;;;15.77;14.40;;;22.30;99.90;;;;;;4974092;28;20474;-65
2022/08/19 11:23:55;;;;;;;16.77;15.27;;;22.30;99.90;;;;;;4972939;28;20527;-65
2022/08/19 11:26:22;;;;;;;15.43;13.87;;;22.40;99.90;;;;;;4974141;28;20948;-65
2022/08/19 11:28:50;;;;;;;17.10;15.50;;;22.50;99.90;;;;;;4976350;28;20450;-65
2022/08/19 11:31:21;;;;;;;15.30;14.10;;;22.70;99.90;;;;;;4976960;28;20809;-65
2022/08/19 11:33:50;;;;;;;16.03;14.57;;;22.80;99.90;;;;;;4979362;28;20435;-65
2022/08/19 11:36:16;;;;;;;14.80;13.60;;;22.80;99.90;;;;;;4980873;28;20436;-65
2022/08/19 11:38:42;;;;;;;16.03;14.57;;;22.90;99.90;;;;;;4982901;28;20458;-65
2022/08/19 11:41:08;;;;;;;14.43;13.20;;;22.90;99.90;;;;;;4982909;28;20214;-65
2022/08/19 11:43:34;;;;;;;14.73;13.43;;;23.10;99.90;;;;;;4981214;28;20574;-65
2022/08/19 11:46:06;;;;;;;15.37;13.87;;;23.10;99.90;;;;;;4974819;28;20176;-65
2022/08/19 11:48:32;;;;;;;14.97;13.77;;;23.20;99.90;;;;;;4974917;28;20463;-65
2022/08/19 11:50:58;;;;;;;15.20;13.93;;;23.10;99.90;;;;;;4980744;28;20430;-64
2022/08/19 11:53:24;;;;;;;15.23;13.63;;;23.10;99.90;;;;;;4985889;28;20773;-65
2022/08/19 11:55:55;;;;;;;15.73;14.43;;;23.00;99.90;;;;;;4976832;28;20192;-65
2022/08/19 11:58:21;;;;;;;15.17;13.87;;;23.10;99.90;;;;;;4981976;28;20482;-64
2022/08/19 12:00:47;;;;;;;14.63;13.30;;;23.00;99.90;;;;;;4979557;28;20455;-65
2022/08/19 12:03:13;;;;;;;14.60;13.33;;;23.20;99.90;;;;;;4975680;28;20183;-65
2022/08/19 12:05:39;;;;;;;13.57;12.47;;;23.20;99.90;;;;;;4979191;28;20188;-65
2022/08/19 12:08:05;;;;;;;14.80;13.07;;;23.50;99.90;;;;;;4976962;28;20462;-66
2022/08/19 12:10:31;;;;;;;14.40;12.97;;;23.80;99.90;;;;;;4978791;28;20493;-65
2022/08/19 12:12:57;;;;;;;13.73;12.57;;;23.90;99.90;;;;;;4980194;28;20451;-65
2022/08/19 12:15:23;;;;;;;13.80;12.60;;;24.20;99.90;;;;;;4978425;28;20431;-65
2022/08/19 12:17:48;;;;;;;13.17;12.07;;;24.20;99.90;;;;;;4983558;28;20207;-65
2022/08/19 12:20:16;;;;;;;13.33;12.33;;;24.20;99.90;;;;;;4982659;28;20215;-65
2022/08/19 12:22:42;;;;;;;13.47;12.37;;;24.00;99.90;;;;;;4979590;28;20188;-65
2022/08/19 12:25:11;;;;;;;13.33;11.93;;;24.00;99.90;;;;;;4979203;28;20803;-65
2022/08/19 12:27:37;;;;;;;13.30;12.20;;;23.90;99.90;;;;;;4981579;28;20207;-64
2022/08/19 12:30:04;;;;;;;13.93;12.70;;;23.70;99.90;;;;;;4982787;28;20442;-65
2022/08/19 12:32:30;;;;;;;14.10;12.87;;;23.70;99.90;;;;;;4972667;28;20503;-64
2022/08/19 12:34:55;;;;;;;14.77;13.57;;;23.60;99.90;;;;;;4972420;28;20443;-64
2022/08/19 12:37:21;;;;;;;14.30;12.83;;;23.70;99.90;;;;;;4972889;28;20194;-65
2022/08/19 12:39:47;;;;;;;13.67;12.57;;;24.00;99.90;;;;;;4974212;28;20230;-65
2022/08/19 12:42:14;;;;;;;13.70;12.50;;;23.80;99.90;;;;;;4980130;28;20212;-65
2022/08/19 12:44:43;;;;;;;12.50;11.30;;;23.90;99.90;;;;;;4977203;28;20249;-65
2022/08/19 12:47:10;;;;;;;13.90;12.60;;;23.80;99.90;;;;;;4978404;28;20526;-65
2022/08/19 12:49:36;;;;;;;13.10;12.00;;;23.80;99.90;;;;;;4979545;28;20435;-65
2022/08/19 12:52:04;;;;;;;13.30;12.20;;;23.70;99.90;;;;;;4978699;28;20439;-64
2022/08/19 12:54:30;;;;;;;13.07;11.97;;;23.60;99.90;;;;;;4974785;28;20438;-64